Time;durP1;ratioP1;P1;durP2;ratioP2;P2;SDS_P1;SDS_P2;PMS_P1;PMS_P2;Temp;Humidity;BMP_temperature;BMP_pressure;BME280_temperature;BME280_humidity;BME280_pressure;Samples;Min_cycle;Max_cycle;Signal;HPM_P1;HPM_P2
2021/05/21 00:01:07;;;;;;;8.93;4.25;;;;;;;14.27;67.67;99978.27;1727738;80;21088;-67
2021/05/21 00:03:33;;;;;;;9.80;4.37;;;;;;;14.22;67.68;99976.59;1728561;81;21069;-65
2021/05/21 00:05:59;;;;;;;8.15;4.10;;;;;;;14.18;67.67;99983.17;1732525;81;21061;-67
2021/05/21 00:08:26;;;;;;;7.22;3.60;;;;;;;14.18;67.59;99988.45;1713085;81;21940;-68
2021/05/21 00:10:52;;;;;;;9.60;4.15;;;;;;;14.22;67.39;99989.83;1651432;83;21135;-67
2021/05/21 00:13:19;;;;;;;12.40;4.58;;;;;;;14.24;67.25;99993.14;1674103;84;21646;-70
2021/05/21 00:15:47;;;;;;;6.78;3.70;;;;;;;14.22;67.36;99991.62;1732588;81;21050;-65
2021/05/21 00:18:15;;;;;;;11.48;4.42;;;;;;;14.19;67.48;99995.42;1736810;81;21057;-70
2021/05/21 00:20:41;;;;;;;7.60;4.35;;;;;;;14.16;67.55;99996.23;1729447;81;21160;-65
2021/05/21 00:23:08;;;;;;;7.37;4.37;;;;;;;14.12;67.51;100004.95;1731183;81;21715;-65
2021/05/21 00:25:34;;;;;;;8.85;4.25;;;;;;;14.07;67.45;100009.87;1715915;82;21169;-65
2021/05/21 00:28:00;;;;;;;7.08;4.33;;;;;;;14.03;67.43;100008.03;1723029;81;21544;-66
2021/05/21 00:30:27;;;;;;;10.98;4.35;;;;;;;13.97;67.42;100012.64;1738806;80;21103;-66
2021/05/21 00:32:54;;;;;;;8.23;4.08;;;;;;;13.95;67.49;100007.97;1719287;81;21120;-68
2021/05/21 00:35:20;;;;;;;11.03;4.08;;;;;;;14.03;67.29;100017.29;1741627;81;21074;-67
2021/05/21 00:37:47;;;;;;;6.55;3.65;;;;;;;14.09;67.04;100021.16;1744419;81;21771;-66
2021/05/21 00:40:14;;;;;;;8.15;4.20;;;;;;;14.11;66.90;100023.97;1748380;80;21073;-66
2021/05/21 00:42:40;;;;;;;10.55;4.55;;;;;;;14.10;66.71;100018.83;1744120;80;21085;-66
2021/05/21 00:45:08;;;;;;;8.85;4.30;;;;;;;14.06;66.53;100022.28;1740516;81;21337;-68
2021/05/21 00:47:34;;;;;;;8.48;4.47;;;;;;;14.04;66.45;100018.14;1720416;81;21370;-65
2021/05/21 00:50:02;;;;;;;6.83;3.77;;;;;;;13.98;66.37;100028.83;1741652;81;21089;-65
2021/05/21 00:52:28;;;;;;;8.30;4.20;;;;;;;13.92;66.43;100030.28;1750217;80;21093;-67
2021/05/21 00:54:55;;;;;;;8.38;4.10;;;;;;;13.88;66.48;100031.55;1721243;81;21024;-67
2021/05/21 00:57:22;;;;;;;8.08;4.58;;;;;;;13.90;66.46;100032.73;1745117;80;21060;-66
2021/05/21 00:59:50;;;;;;;8.58;4.40;;;;;;;13.92;66.28;100032.92;1747844;80;21645;-66
2021/05/21 01:02:16;;;;;;;7.60;4.80;;;;;;;13.92;66.35;100032.92;1740172;80;21107;-64
2021/05/21 01:04:42;;;;;;;7.85;4.58;;;;;;;13.94;66.29;100033.59;1741852;81;21111;-64
2021/05/21 01:07:09;;;;;;;7.42;3.85;;;;;;;13.91;66.12;100032.58;1744808;80;21025;-65
2021/05/21 01:09:35;;;;;;;8.03;4.28;;;;;;;13.90;66.10;100030.08;1748973;81;21641;-65
2021/05/21 01:12:05;;;;;;;6.65;4.12;;;;;;;13.87;66.00;100033.03;1746796;80;21080;-65
2021/05/21 01:14:33;;;;;;;8.05;4.90;;;;;;;13.82;65.97;100038.80;1744377;81;21095;-66
2021/05/21 01:16:59;;;;;;;7.47;4.17;;;;;;;13.75;66.05;100041.22;1748634;80;21139;-64
2021/05/21 01:19:26;;;;;;;7.47;4.28;;;;;;;13.71;66.17;100044.31;1742840;80;21088;-67
2021/05/21 01:21:54;;;;;;;8.08;3.80;;;;;;;13.70;66.28;100043.95;1684541;82;21084;-67
2021/05/21 01:24:20;;;;;;;6.87;3.92;;;;;;;13.70;66.34;100045.28;1677000;83;21072;-65
2021/05/21 01:26:47;;;;;;;8.48;4.17;;;;;;;13.70;66.40;100045.28;1685834;83;21757;-66
2021/05/21 01:29:14;;;;;;;9.30;4.30;;;;;;;13.67;66.44;100050.39;1704176;82;21619;-65
2021/05/21 01:31:43;;;;;;;7.25;4.53;;;;;;;13.65;66.52;100047.08;1729054;80;21045;-70
2021/05/21 01:34:09;;;;;;;6.58;3.60;;;;;;;13.62;66.52;100052.66;1735787;80;21141;-66
2021/05/21 01:36:36;;;;;;;8.00;3.98;;;;;;;13.59;66.53;100052.14;1735398;80;21614;-66
2021/05/21 01:39:10;;;;;;;6.67;3.80;;;;;;;13.53;66.42;100048.27;1716950;82;21096;-67
2021/05/21 01:41:37;;;;;;;6.65;3.55;;;;;;;13.53;66.35;100050.91;1736748;80;21669;-65
2021/05/21 01:44:06;;;;;;;7.65;4.15;;;;;;;13.55;66.34;100057.72;1735058;80;21032;-66
2021/05/21 01:46:33;;;;;;;7.70;4.17;;;;;;;13.59;66.27;100063.53;1713462;81;21085;-65
2021/05/21 01:49:00;;;;;;;8.23;4.03;;;;;;;13.59;66.20;100065.36;1736985;80;21084;-66
2021/05/21 01:51:27;;;;;;;7.55;3.65;;;;;;;13.54;66.29;100067.12;1714307;80;21193;-65
2021/05/21 01:54:14;;;;;;;11.00;3.80;;;;;;;13.48;66.49;100070.34;1739621;81;21108;-66
2021/05/21 01:56:40;;;;;;;7.15;3.75;;;;;;;13.45;66.54;100071.50;1740473;81;21623;-65
2021/05/21 01:59:07;;;;;;;8.58;3.92;;;;;;;13.36;66.60;100072.38;1740002;80;21051;-66
2021/05/21 02:01:34;;;;;;;5.72;3.60;;;;;;;13.28;66.72;100081.49;1738779;80;21033;-65
2021/05/21 02:04:02;;;;;;;7.25;3.85;;;;;;;13.21;66.95;100078.61;1733016;81;21678;-68
2021/05/21 02:06:29;;;;;;;6.28;3.17;;;;;;;13.21;67.06;100083.89;1739944;80;21160;-66
2021/05/21 02:08:57;;;;;;;5.97;3.08;;;;;;;13.22;67.02;100085.57;1739009;81;21089;-69
2021/05/21 02:11:23;;;;;;;7.95;3.70;;;;;;;13.22;67.14;100082.10;1733260;80;21591;-73
2021/05/21 02:13:51;;;;;;;7.35;3.50;;;;;;;13.18;67.12;100076.29;1715896;81;21691;-65
2021/05/21 02:16:17;;;;;;;5.45;3.30;;;;;;;13.19;67.17;100080.58;1735218;80;21607;-65
2021/05/21 02:18:45;;;;;;;6.35;3.77;;;;;;;13.16;67.07;100079.08;1743902;80;21088;-66
2021/05/21 02:21:12;;;;;;;7.67;4.15;;;;;;;13.12;67.24;100085.61;1741293;81;21021;-68
2021/05/21 02:23:38;;;;;;;7.20;3.95;;;;;;;13.09;67.25;100080.61;1701340;82;21105;-65
2021/05/21 02:26:06;;;;;;;6.95;3.47;;;;;;;13.05;67.21;100079.76;1700973;83;21093;-67
2021/05/21 02:28:33;;;;;;;7.33;3.55;;;;;;;13.01;67.16;100083.16;1739721;80;21190;-73
2021/05/21 02:31:00;;;;;;;7.15;3.52;;;;;;;13.00;67.21;100081.51;1726080;81;21087;-64
2021/05/21 02:33:27;;;;;;;7.58;3.70;;;;;;;12.97;67.16;100083.11;1750292;80;21595;-65
2021/05/21 02:35:54;;;;;;;10.18;4.08;;;;;;;12.94;67.38;100076.80;1751315;80;21120;-65
2021/05/21 02:38:21;;;;;;;8.08;4.03;;;;;;;12.95;67.53;100082.44;1754778;80;21060;-64
2021/05/21 02:40:48;;;;;;;7.78;3.58;;;;;;;12.95;67.30;100077.98;1747329;80;22301;-66
2021/05/21 02:43:15;;;;;;;6.10;3.52;;;;;;;12.93;67.25;100083.08;1723026;81;21104;-65
2021/05/21 02:45:41;;;;;;;7.17;3.55;;;;;;;12.89;67.29;100088.28;1745180;80;21030;-65
2021/05/21 02:48:07;;;;;;;6.90;3.05;;;;;;;12.85;67.40;100086.92;1750152;80;21091;-64
2021/05/21 02:50:34;;;;;;;6.97;3.00;;;;;;;12.81;67.47;100092.99;1746211;80;21071;-72
2021/05/21 02:53:00;;;;;;;5.90;2.33;;;;;;;12.84;67.36;100094.00;1743642;81;21803;-65
2021/05/21 02:55:27;;;;;;;5.53;2.72;;;;;;;12.95;67.23;100095.14;1743791;81;21195;-67
2021/05/21 02:57:53;;;;;;;5.28;2.75;;;;;;;13.03;66.90;100095.75;1717871;80;21079;-68
2021/05/21 03:00:20;;;;;;;6.65;3.05;;;;;;;13.06;66.72;100095.43;1740512;81;21127;-65
2021/05/21 03:02:46;;;;;;;5.37;2.75;;;;;;;13.04;66.72;100106.64;1744108;81;21541;-67
2021/05/21 03:05:17;;;;;;;7.67;3.00;;;;;;;13.00;66.70;100103.95;1745134;80;21095;-69
2021/05/21 03:07:42;;;;;;;7.08;3.37;;;;;;;13.01;66.69;100108.24;1710451;81;21634;-67
2021/05/21 03:10:10;;;;;;;6.15;2.75;;;;;;;13.04;66.65;100109.28;1748718;80;21118;-69
2021/05/21 03:12:36;;;;;;;6.85;3.17;;;;;;;13.06;66.50;100119.20;1753255;81;21641;-65
2021/05/21 03:15:04;;;;;;;5.45;2.60;;;;;;;13.05;66.46;100116.73;1746961;80;21143;-70
2021/05/21 03:17:32;;;;;;;5.35;2.70;;;;;;;13.08;66.26;100117.27;1746046;80;21359;-65
2021/05/21 03:20:00;;;;;;;6.92;2.90;;;;;;;13.18;65.90;100118.55;1743811;81;21080;-65
2021/05/21 03:22:26;;;;;;;5.80;2.70;;;;;;;13.23;65.73;100120.27;1745563;80;21650;-67
2021/05/21 03:24:52;;;;;;;4.90;2.65;;;;;;;13.29;65.47;100124.13;1744529;81;21089;-65
2021/05/21 03:27:19;;;;;;;5.53;2.52;;;;;;;13.33;65.43;100129.48;1740630;80;21068;-67
2021/05/21 03:29:46;;;;;;;6.00;3.00;;;;;;;13.35;65.28;100128.86;1680595;84;21100;-65
2021/05/21 03:32:12;;;;;;;4.87;2.15;;;;;;;13.37;65.41;100129.54;1645767;85;21097;-65
2021/05/21 03:34:39;;;;;;;5.80;2.72;;;;;;;13.38;65.01;100136.00;1688278;84;21147;-67
2021/05/21 03:37:06;;;;;;;6.15;2.17;;;;;;;13.43;65.11;100135.57;1698574;83;21073;-65
2021/05/21 03:39:32;;;;;;;4.22;2.02;;;;;;;13.51;64.96;100135.64;1730912;82;21072;-66
2021/05/21 03:41:59;;;;;;;4.97;2.70;;;;;;;13.59;64.96;100138.05;1735843;82;21437;-64
2021/05/21 03:55:55;;;;;;;5.72;2.52;;;;;;;15.09;61.32;100141.26;1722965;80;22835;-64
2021/05/21 03:58:21;;;;;;;7.00;1.80;;;;;;;15.15;60.15;100138.80;1754280;79;22116;-65
2021/05/21 04:00:48;;;;;;;5.20;2.00;;;;;;;15.04;60.30;100146.52;1761521;79;21786;-65
2021/05/21 04:03:15;;;;;;;5.87;2.60;;;;;;;14.90;60.26;100147.12;1728453;79;21154;-60
2021/05/21 04:05:41;;;;;;;7.37;3.37;;;;;;;14.68;60.44;100151.95;1745186;79;21241;-62
2021/05/21 04:08:07;;;;;;;7.25;3.08;;;;;;;14.50;61.46;100152.45;1727992;79;21111;-61
2021/05/21 04:10:35;;;;;;;5.80;2.72;;;;;;;14.37;62.28;100155.98;1724808;80;21228;-61
2021/05/21 04:13:02;;;;;;;5.62;3.00;;;;;;;14.31;62.47;100155.61;1737347;79;21174;-61
2021/05/21 04:15:29;;;;;;;4.58;2.20;;;;;;;14.36;62.53;100159.63;1744116;80;22360;-61
2021/05/21 04:17:55;;;;;;;6.30;2.50;;;;;;;14.28;62.21;100151.94;1748202;79;21073;-61
2021/05/21 04:20:23;;;;;;;9.45;4.35;;;;;;;14.19;62.80;100163.45;1729615;80;21203;-60
2021/05/21 04:22:49;;;;;;;8.65;3.08;;;;;;;14.12;64.33;100159.73;1701285;81;21120;-63
2021/05/21 04:25:16;;;;;;;6.60;2.80;;;;;;;14.16;65.13;100157.13;1708766;81;21128;-63
2021/05/21 04:27:42;;;;;;;5.30;2.70;;;;;;;14.30;64.07;100158.41;1693631;83;21134;-60
2021/05/21 04:30:12;;;;;;;4.45;2.17;;;;;;;14.38;64.27;100161.63;1727992;80;21095;-61
2021/05/21 04:32:38;;;;;;;5.78;2.35;;;;;;;14.39;63.54;100164.12;1699254;81;21254;-60
2021/05/21 04:35:07;;;;;;;4.37;1.82;;;;;;;14.42;64.07;100168.27;1709531;81;21143;-61
2021/05/21 04:37:34;;;;;;;9.63;2.20;;;;;;;14.47;62.94;100177.42;1698238;80;21371;-62
2021/05/21 04:40:00;;;;;;;4.55;1.87;;;;;;;14.55;63.04;100177.14;1722779;80;21097;-61
2021/05/21 04:42:27;;;;;;;5.00;2.00;;;;;;;14.62;62.49;100180.36;1745117;79;21161;-62
2021/05/21 04:44:53;;;;;;;4.78;1.80;;;;;;;14.65;61.97;100177.91;1728857;80;21567;-61
2021/05/21 04:47:22;;;;;;;4.70;1.92;;;;;;;14.63;62.28;100185.19;1735746;79;21084;-60
2021/05/21 04:49:50;;;;;;;4.78;2.25;;;;;;;14.65;62.76;100185.35;1734090;79;21368;-61
2021/05/21 04:52:16;;;;;;;5.67;1.98;;;;;;;14.74;62.82;100188.89;1709265;81;21109;-61
2021/05/21 04:54:43;;;;;;;4.17;1.87;;;;;;;14.85;62.39;100195.27;1707717;81;21096;-62
2021/05/21 04:57:09;;;;;;;6.85;1.80;;;;;;;15.00;61.73;100199.50;1733608;79;21082;-61
2021/05/21 04:59:36;;;;;;;4.33;1.72;;;;;;;15.11;60.60;100200.22;1711119;81;21068;-61
2021/05/21 05:02:03;;;;;;;5.87;1.87;;;;;;;15.13;60.75;100203.06;1715763;81;21161;-60
2021/05/21 05:04:29;;;;;;;7.05;2.30;;;;;;;15.16;60.82;100205.41;1682961;82;21236;-60
2021/05/21 05:06:56;;;;;;;6.10;2.50;;;;;;;15.18;59.77;100206.55;1745216;80;21178;-61
2021/05/21 05:09:23;;;;;;;6.03;2.33;;;;;;;15.17;60.11;100211.03;1736588;80;21231;-62
2021/05/21 05:11:50;;;;;;;6.58;2.20;;;;;;;15.21;59.84;100216.84;1701846;81;21202;-61
2021/05/21 05:14:17;;;;;;;6.00;2.10;;;;;;;15.22;59.35;100210.56;1719880;81;22178;-59
2021/05/21 05:16:44;;;;;;;5.50;2.25;;;;;;;15.19;59.24;100216.17;1747155;80;21105;-60
2021/05/21 05:19:11;;;;;;;5.55;2.17;;;;;;;15.20;58.76;100213.87;1731263;80;21601;-59
2021/05/21 05:21:41;;;;;;;5.45;2.12;;;;;;;15.23;58.77;100214.86;1742038;80;21169;-60
2021/05/21 05:24:17;;;;;;;7.95;2.50;;;;;;;15.31;59.10;100213.58;1736911;80;21079;-58
2021/05/21 05:26:45;;;;;;;4.70;2.12;;;;;;;15.46;58.20;100213.83;1699582;81;21164;-59
2021/05/21 05:29:11;;;;;;;6.25;2.10;;;;;;;15.50;58.55;100218.31;1722018;81;21156;-59
2021/05/21 05:31:39;;;;;;;9.53;2.72;;;;;;;15.51;58.07;100222.12;1728178;81;21397;-58
2021/05/21 05:34:06;;;;;;;6.75;2.40;;;;;;;15.53;58.10;100225.48;1721408;80;21222;-59
2021/05/21 05:36:33;;;;;;;5.83;2.25;;;;;;;15.50;56.82;100224.47;1735289;80;21138;-63
2021/05/21 05:39:00;;;;;;;5.22;1.52;;;;;;;15.53;57.18;100219.33;1684641;82;22175;-59
2021/05/21 05:41:27;;;;;;;6.42;2.80;;;;;;;15.59;57.73;100224.00;1689555;81;21118;-59
2021/05/21 05:43:53;;;;;;;6.28;1.85;;;;;;;15.65;56.84;100223.84;1675816;83;21508;-61
2021/05/21 05:46:21;;;;;;;8.98;2.35;;;;;;;15.72;55.95;100225.72;1729399;80;21152;-60
2021/05/21 05:48:48;;;;;;;6.87;2.12;;;;;;;15.79;55.84;100228.08;1735692;79;21060;-63
2021/05/21 05:51:15;;;;;;;5.15;2.08;;;;;;;15.82;55.94;100227.42;1696714;82;21415;-60
2021/05/21 05:53:41;;;;;;;5.05;2.33;;;;;;;15.85;56.32;100217.31;1703850;81;21664;-66
2021/05/21 05:56:08;;;;;;;9.55;2.27;;;;;;;15.94;55.48;100219.52;1692509;82;21109;-67
2021/05/21 05:58:36;;;;;;;10.65;2.62;;;;;;;15.98;55.46;100215.53;1700197;81;21305;-65
2021/05/21 06:01:03;;;;;;;7.25;2.50;;;;;;;16.06;55.39;100220.86;1713833;81;21179;-69
2021/05/21 06:03:29;;;;;;;8.18;3.20;;;;;;;16.18;54.15;100224.04;1708584;81;22747;-61
2021/05/21 06:05:56;;;;;;;8.18;2.70;;;;;;;16.26;54.05;100223.23;1741588;79;21146;-61
2021/05/21 06:08:23;;;;;;;7.47;2.45;;;;;;;16.34;54.21;100221.92;1710989;81;21430;-62
2021/05/21 06:10:51;;;;;;;9.20;2.70;;;;;;;16.44;53.98;100222.59;1714386;80;21626;-63
2021/05/21 06:13:17;;;;;;;8.30;2.45;;;;;;;16.49;52.53;100216.28;1737900;80;21115;-61
2021/05/21 06:15:43;;;;;;;6.80;2.37;;;;;;;16.51;52.88;100216.13;1720690;80;21930;-62
2021/05/21 06:18:11;;;;;;;6.75;2.72;;;;;;;16.52;53.00;100221.75;1709073;80;21163;-61
2021/05/21 06:20:38;;;;;;;6.90;1.80;;;;;;;16.51;53.38;100220.11;1740839;79;21110;-62
2021/05/21 06:23:04;;;;;;;8.00;2.10;;;;;;;16.46;53.86;100221.10;1740056;79;21127;-60
2021/05/21 06:25:56;;;;;;;8.20;2.40;;;;;;;16.44;53.03;100224.39;1714460;81;21635;-62
2021/05/21 06:28:07;;;;;;;12.33;2.20;;;;;;;16.45;53.13;100224.73;1736989;80;21674;-62
2021/05/21 06:30:34;;;;;;;10.10;1.98;;;;;;;16.42;52.71;100223.23;1747632;79;21023;-58
2021/05/21 06:33:00;;;;;;;5.42;1.92;;;;;;;16.42;52.61;100225.06;1738761;79;21141;-61
2021/05/21 06:35:27;;;;;;;8.08;2.15;;;;;;;16.46;52.59;100229.06;1747352;80;21096;-59
2021/05/21 06:37:54;;;;;;;5.92;2.40;;;;;;;16.44;51.48;100219.08;1723450;80;21067;-61
2021/05/21 06:40:21;;;;;;;5.05;1.75;;;;;;;16.45;51.39;100235.36;1708312;80;21817;-60
2021/05/21 06:42:47;;;;;;;5.47;1.27;;;;;;;16.41;51.27;100224.72;1705640;81;21104;-61
2021/05/21 06:45:14;;;;;;;6.58;1.40;;;;;;;16.38;50.40;100217.93;1698734;81;21200;-60
2021/05/21 06:47:42;;;;;;;4.12;1.30;;;;;;;16.41;51.18;100218.94;1701703;81;21637;-62
2021/05/21 06:50:11;;;;;;;5.53;1.60;;;;;;;16.45;50.49;100218.09;1705974;81;21140;-68
2021/05/21 06:52:37;;;;;;;3.47;1.00;;;;;;;16.49;51.41;100226.91;1728224;80;21172;-62
2021/05/21 06:55:06;;;;;;;4.33;1.25;;;;;;;16.55;50.52;100222.75;1711352;80;21146;-61
2021/05/21 06:57:35;;;;;;;4.55;1.27;;;;;;;16.60;49.56;100218.27;1722218;80;21153;-61
2021/05/21 07:00:04;;;;;;;3.62;1.20;;;;;;;16.61;50.03;100223.90;1749892;79;21147;-61
2021/05/21 07:02:31;;;;;;;5.53;1.10;;;;;;;16.63;50.61;100220.61;1712827;80;21334;-60
2021/05/21 07:04:58;;;;;;;3.98;0.98;;;;;;;16.69;51.52;100226.08;1721714;81;21147;-60
2021/05/21 07:07:25;;;;;;;3.83;1.00;;;;;;;16.82;48.79;100233.53;1733063;80;21743;-59
2021/05/21 07:09:52;;;;;;;2.67;0.75;;;;;;;16.91;47.76;100226.41;1727042;81;22436;-61
2021/05/21 07:12:18;;;;;;;3.52;1.20;;;;;;;16.98;47.98;100235.86;1701993;81;21332;-62
2021/05/21 07:14:48;;;;;;;3.10;0.80;;;;;;;17.03;47.43;100233.53;1711623;81;21366;-60
2021/05/21 07:17:14;;;;;;;3.85;0.90;;;;;;;17.01;46.47;100240.37;1726492;80;22914;-60
2021/05/21 07:19:42;;;;;;;2.52;0.85;;;;;;;17.02;46.46;100242.52;1722330;80;21667;-64
2021/05/21 07:22:09;;;;;;;6.03;1.02;;;;;;;17.07;47.31;100245.00;1726746;80;21066;-60
2021/05/21 07:24:36;;;;;;;2.98;0.85;;;;;;;17.14;46.32;100250.98;1694043;81;21599;-60
2021/05/21 07:27:04;;;;;;;3.15;1.07;;;;;;;17.18;45.90;100246.97;1713567;81;21132;-60
2021/05/21 07:29:31;;;;;;;5.17;1.12;;;;;;;17.23;45.83;100249.95;1717854;79;22277;-59
2021/05/21 07:31:58;;;;;;;5.53;0.95;;;;;;;17.27;46.66;100248.62;1743721;79;21063;-59
2021/05/21 07:34:25;;;;;;;4.40;0.90;;;;;;;17.28;47.20;100248.94;1731746;80;21172;-58
2021/05/21 07:36:52;;;;;;;3.60;0.85;;;;;;;17.27;47.80;100253.44;1739808;80;21146;-61
2021/05/21 07:39:20;;;;;;;3.45;1.00;;;;;;;17.25;47.72;100248.80;1695511;81;21170;-59
2021/05/21 07:41:46;;;;;;;2.58;0.70;;;;;;;17.26;46.81;100254.45;1707870;80;21152;-59
2021/05/21 07:44:13;;;;;;;2.85;0.80;;;;;;;17.24;47.34;100251.62;1711468;81;21647;-60
2021/05/21 07:46:40;;;;;;;1.87;0.60;;;;;;;17.25;46.70;100259.43;1702107;81;21057;-59
2021/05/21 07:49:08;;;;;;;2.37;0.80;;;;;;;17.25;45.92;100260.76;1702926;79;21067;-59
2021/05/21 07:51:35;;;;;;;3.22;0.98;;;;;;;17.23;46.14;100260.58;1716300;81;21128;-59
2021/05/21 07:54:01;;;;;;;2.77;0.82;;;;;;;17.20;46.99;100267.09;1702691;81;22235;-59
2021/05/21 07:56:28;;;;;;;1.80;0.62;;;;;;;17.23;45.83;100261.44;1702701;81;21037;-59
2021/05/21 07:58:54;;;;;;;1.90;0.65;;;;;;;17.29;45.96;100264.41;1704709;81;22537;-59
2021/05/21 08:01:21;;;;;;;3.70;0.90;;;;;;;17.30;45.86;100261.59;1700942;81;21136;-62
2021/05/21 08:03:48;;;;;;;4.33;0.90;;;;;;;17.36;45.58;100265.38;1705298;80;21599;-59
2021/05/21 08:06:16;;;;;;;3.92;0.80;;;;;;;17.39;44.02;100259.22;1726656;80;21256;-59
2021/05/21 08:08:42;;;;;;;3.10;1.00;;;;;;;17.37;45.52;100264.40;1737637;80;21180;-60
2021/05/21 08:11:09;;;;;;;3.50;1.07;;;;;;;17.34;45.93;100261.56;1715979;80;21163;-60
2021/05/21 08:13:39;;;;;;;4.03;1.02;;;;;;;17.36;46.02;100259.56;1700924;81;21124;-60
2021/05/21 08:16:10;;;;;;;2.47;0.90;;;;;;;17.39;45.39;100261.06;1740547;81;21116;-60
2021/05/21 08:18:37;;;;;;;3.12;1.17;;;;;;;17.41;45.66;100263.86;1725795;80;21714;-59
2021/05/21 08:21:04;;;;;;;4.60;1.30;;;;;;;17.45;46.18;100267.86;1738944;81;21073;-60
2021/05/21 08:23:30;;;;;;;5.30;1.37;;;;;;;17.48;45.92;100260.53;1700922;81;21084;-59
2021/05/21 08:25:57;;;;;;;5.00;1.20;;;;;;;17.51;45.72;100255.70;1716739;80;21165;-59
2021/05/21 08:28:25;;;;;;;2.90;0.90;;;;;;;17.47;46.04;100262.38;1743846;79;21127;-60
2021/05/21 08:30:52;;;;;;;3.05;1.00;;;;;;;17.46;46.37;100266.84;1706855;81;21752;-62
2021/05/21 08:33:19;;;;;;;3.25;1.12;;;;;;;17.53;46.31;100259.52;1735122;80;21190;-61
2021/05/21 08:35:47;;;;;;;3.27;0.93;;;;;;;17.59;46.71;100259.66;1745360;80;21151;-66
2021/05/21 08:38:14;;;;;;;4.67;1.60;;;;;;;17.68;46.81;100260.97;1723836;80;21185;-64
2021/05/21 08:40:41;;;;;;;4.83;1.98;;;;;;;17.69;46.98;100259.98;1728243;80;21613;-62
2021/05/21 08:43:09;;;;;;;3.05;1.37;;;;;;;17.69;46.34;100257.31;1722347;80;21503;-62
2021/05/21 08:45:38;;;;;;;3.72;1.25;;;;;;;17.71;47.17;100263.29;1731329;80;21131;-61
2021/05/21 08:48:05;;;;;;;3.05;1.20;;;;;;;17.76;46.82;100260.42;1736447;80;22216;-61
2021/05/21 08:50:32;;;;;;;3.55;1.50;;;;;;;17.82;47.13;100262.92;1713601;80;22002;-65
2021/05/21 08:52:59;;;;;;;3.92;1.40;;;;;;;17.88;47.36;100260.91;1716222;81;21085;-60
2021/05/21 08:55:26;;;;;;;4.62;1.50;;;;;;;17.93;47.57;100270.53;1710455;80;21210;-60
2021/05/21 08:57:53;;;;;;;3.60;1.35;;;;;;;17.97;46.83;100266.53;1724867;80;21060;-61
2021/05/21 09:00:20;;;;;;;4.08;1.50;;;;;;;17.97;46.77;100261.20;1727022;80;20997;-60
2021/05/21 09:02:46;;;;;;;4.72;1.75;;;;;;;17.96;46.96;100258.20;1733294;81;20976;-61
2021/05/21 09:05:13;;;;;;;3.75;1.40;;;;;;;17.97;47.07;100270.53;1737671;80;21097;-61
2021/05/21 09:07:41;;;;;;;3.67;1.55;;;;;;;17.97;47.14;100273.19;1740794;80;21154;-60
2021/05/21 09:10:17;;;;;;;3.47;1.45;;;;;;;18.03;47.28;100268.17;1718315;79;21046;-60
2021/05/21 09:12:52;;;;;;;3.77;1.65;;;;;;;18.08;46.90;100266.63;1707617;81;21137;-61
2021/05/21 09:15:24;;;;;;;3.45;1.45;;;;;;;18.17;46.19;100274.06;1728247;79;21159;-61
2021/05/21 09:18:00;;;;;;;2.92;1.35;;;;;;;18.25;46.29;100271.36;1729056;80;21112;-61
2021/05/21 09:20:40;;;;;;;5.17;1.65;;;;;;;18.32;45.40;100264.31;1719306;80;21157;-60
2021/05/21 09:23:16;;;;;;;4.35;1.55;;;;;;;18.41;45.75;100271.77;1721476;80;21136;-61
2021/05/21 09:25:51;;;;;;;;;;;;;;;18.51;45.12;100270.22;1701255;81;21249;-61
2021/05/21 09:28:43;;;;;;;3.10;1.22;;;;;;;18.56;43.77;100263.34;1723334;81;21011;-60
2021/05/21 09:31:21;;;;;;;5.83;1.75;;;;;;;18.57;44.06;100269.48;1718075;78;21092;-60
2021/05/21 09:33:49;;;;;;;3.83;1.40;;;;;;;18.66;43.79;100267.09;1725170;80;21132;-61
2021/05/21 09:36:32;;;;;;;4.45;1.42;;;;;;;18.81;43.80;100268.97;1720041;81;21065;-61
2021/05/21 09:38:59;;;;;;;3.33;1.40;;;;;;;18.90;43.87;100270.09;1740747;80;21141;-62
2021/05/21 09:41:26;;;;;;;4.28;1.80;;;;;;;19.00;42.51;100267.17;1740922;80;21107;-61
2021/05/21 09:43:56;;;;;;;3.10;1.30;;;;;;;19.06;41.71;100261.13;1723345;80;21109;-61
2021/05/21 09:46:23;;;;;;;2.87;1.00;;;;;;;19.10;41.11;100271.73;1715052;81;21693;-61
2021/05/21 09:48:51;;;;;;;5.22;1.30;;;;;;;19.14;40.63;100266.05;1707801;81;21097;-60
2021/05/21 09:51:19;;;;;;;2.77;1.15;;;;;;;19.18;39.04;100261.51;1710418;80;21074;-60
2021/05/21 09:53:48;;;;;;;5.87;1.30;;;;;;;19.23;39.80;100261.79;1739798;79;21171;-61
2021/05/21 09:56:23;;;;;;;5.58;1.30;;;;;;;19.28;40.06;100251.40;1731874;80;21165;-61
2021/05/21 09:58:49;;;;;;;2.80;1.05;;;;;;;19.31;41.17;100257.67;1708903;80;22557;-61
2021/05/21 10:01:24;;;;;;;4.60;0.82;;;;;;;19.31;41.11;100254.19;1697171;81;21087;-61
2021/05/21 10:03:55;;;;;;;2.15;0.72;;;;;;;19.19;40.01;100253.00;1699192;81;22381;-61
2021/05/21 10:06:24;;;;;;;2.17;0.80;;;;;;;19.07;40.15;100256.61;1703410;81;21190;-60
2021/05/21 10:08:55;;;;;;;2.60;0.80;;;;;;;18.99;40.36;100258.84;1703134;81;21149;-60
2021/05/21 10:11:19;;;;;;;1.85;0.65;;;;;;;18.93;39.70;100251.58;1712609;81;21316;-58
2021/05/21 10:13:46;;;;;;;2.67;1.00;;;;;;;18.88;39.51;100258.78;1715528;78;21109;-58
2021/05/21 10:16:17;;;;;;;2.98;0.85;;;;;;;18.90;40.00;100260.75;1728906;79;21206;-59
2021/05/21 10:18:50;;;;;;;4.75;1.15;;;;;;;19.03;39.69;100254.81;1707796;79;21861;-59
2021/05/21 10:21:20;;;;;;;;;;;;;;;19.24;38.72;100251.94;1719528;80;21121;-60
2021/05/21 10:24:03;;;;;;;2.47;0.85;;;;;;;19.42;38.18;100249.73;1717724;80;21079;-61
2021/05/21 10:26:34;;;;;;;2.10;0.70;;;;;;;19.46;37.38;100251.02;1726955;80;21059;-60
2021/05/21 10:29:06;;;;;;;3.05;1.10;;;;;;;19.45;38.01;100254.71;1697957;81;21116;-59
2021/05/21 10:31:33;;;;;;;2.05;0.75;;;;;;;19.37;38.97;100257.98;1689161;81;21152;-58
2021/05/21 10:34:18;;;;;;;3.20;1.10;;;;;;;19.25;39.43;100241.61;1713445;81;21135;-59
2021/05/21 10:37:31;;;;;;;2.15;0.78;;;;;;;19.17;38.88;100263.02;1693815;80;21123;-62
2021/05/21 10:40:29;;;;;;;3.35;0.95;;;;;;;19.09;38.33;100257.25;1731307;79;21110;-59
2021/05/21 10:43:17;;;;;;;2.55;0.95;;;;;;;19.10;37.68;100257.59;1719010;80;21008;-61
2021/05/21 10:45:54;;;;;;;2.12;0.70;;;;;;;19.14;36.49;100252.20;1732446;79;21192;-61
2021/05/21 10:48:26;;;;;;;2.45;0.90;;;;;;;19.24;36.79;100242.60;1699437;80;22121;-60
2021/05/21 10:51:11;;;;;;;2.70;0.82;;;;;;;19.41;35.68;100242.73;1684716;81;21734;-59
2021/05/21 10:53:41;;;;;;;4.10;0.70;;;;;;;19.55;35.46;100243.77;1720919;80;21099;-59
2021/05/21 10:56:08;;;;;;;2.95;0.82;;;;;;;19.63;36.16;100247.64;1703529;82;21086;-59
2021/05/21 10:58:43;;;;;;;1.50;0.80;;;;;;;19.62;34.87;100250.53;1706546;81;21129;-59
2021/05/21 11:01:26;;;;;;;1.57;0.60;;;;;;;19.60;33.80;100243.19;1705237;81;21222;-58
2021/05/21 11:04:06;;;;;;;1.42;0.50;;;;;;;19.66;31.91;100242.45;1647921;82;21661;-59
2021/05/21 11:06:46;;;;;;;2.55;0.90;;;;;;;19.76;31.43;100255.55;1677758;81;21117;-59
2021/05/21 11:09:15;;;;;;;3.08;0.90;;;;;;;19.87;32.19;100240.40;1717264;80;21081;-59
2021/05/21 11:11:54;;;;;;;2.05;0.90;;;;;;;20.07;31.04;100250.47;1711764;81;21149;-63
2021/05/21 11:14:36;;;;;;;3.62;0.93;;;;;;;20.22;31.75;100248.58;1746202;80;21605;-59
2021/05/21 11:17:14;;;;;;;2.75;0.82;;;;;;;20.40;31.60;100246.30;1727355;80;21796;-60
2021/05/21 11:20:01;;;;;;;3.40;0.80;;;;;;;20.53;31.14;100248.28;1741491;80;22026;-60
2021/05/21 11:22:36;;;;;;;2.27;0.75;;;;;;;20.62;31.71;100244.14;1734966;80;21103;-59
2021/05/21 11:25:10;;;;;;;3.27;0.70;;;;;;;20.62;32.85;100240.95;1685604;82;21048;-62
2021/05/21 11:27:38;;;;;;;2.75;0.75;;;;;;;20.68;32.51;100248.24;1718160;80;21160;-61
2021/05/21 11:30:11;;;;;;;2.87;0.90;;;;;;;20.79;31.90;100244.20;1702243;81;21223;-60
2021/05/21 11:32:40;;;;;;;2.52;0.82;;;;;;;20.89;32.39;100238.01;1702168;81;21216;-59
2021/05/21 11:35:09;;;;;;;5.20;1.00;;;;;;;20.99;33.57;100224.30;1707155;80;21068;-60
2021/05/21 11:37:36;;;;;;;4.42;1.00;;;;;;;20.96;33.51;100246.93;1700767;82;21683;-58
2021/05/21 11:40:07;;;;;;;2.37;0.60;;;;;;;20.91;33.08;100249.36;1708494;80;21133;-57
2021/05/21 11:42:36;;;;;;;2.47;0.80;;;;;;;20.87;33.33;100258.78;1701249;81;21164;-58
2021/05/21 11:45:06;;;;;;;2.33;0.78;;;;;;;20.88;31.89;100251.57;1689499;80;21149;-61